x

South Bass Island, Oh (sbio1) Weather Station

6:00am - Mon 26th Jan 2015 All times are CST. -6 hours from GMT.

  • Wind
    10mph, 15mph gusts
  • Air Temp 13°f
  • Sea Pressure 1013.1mb
  • South Bass Island, Oh
  • South Bass Island, Oh

More Historic Weather Station data

Upgrade to MSW Pro to gain access to the past 30 days of data for over 8000 Wavebouys and Weather Stations around the globe.

Join Pro

Comparision Forecast

View Surf forecast
   
Mon 01/26 6:00am 10 15 mph 1013.1mb 13f
5:00am 9 13 mph 1013.1mb 15f
4:00am 10 14 mph 1013.2mb 16f
3:00am 8 14 mph 1013.1mb 17f
2:00am 7 13 mph 1013.6mb 17f
1:00am 9 15 mph 1014mb 18f
12:00am 15 21 mph 1014.3mb 20f
Sun 01/25 11:00pm 14 18 mph 1014.7mb 21f
10:00pm 5 10 mph 1014.6mb 18f
9:00pm 9 16 mph 1014.5mb 18f
8:00pm 11 18 mph 1014.4mb 18f
7:00pm 7 13 mph 1014.6mb 18f
6:00pm 14 20 mph 1014.4mb 21f
5:00pm 13 20 mph 1013.5mb 21f
4:00pm 15 20 mph 1013.1mb 22f
3:00pm 15 22 mph 1012.5mb 22f
2:00pm 17 23 mph 1012mb 24f
1:00pm 17 23 mph 1012.1mb 24f
12:00pm 10 17 mph 1012.4mb 24f
11:00am 18 22 mph 1012.8mb 25f
10:00am 16 23 mph 1013mb 25f
9:00am 14 18 mph 1011.8mb 27f
8:00am 13 21 mph 1010.8mb 27f
7:00am 7 11 mph 1009.9mb 28f
6:00am 14 18 mph 1009.3mb 29f
5:00am 1 2 mph 1007.7mb 34f
4:00am 7 8 mph 1007.5mb 33f
3:00am 5
mph
1007.1mb 33f
2:00am 7 8 mph 1006.9mb 34f
1:00am 9
mph
1006.4mb 33f
12:00am 8 9 mph 1006.2mb 33f
Sat 01/24 11:00pm 15
mph
1006mb 34f
10:00pm 17 18 mph 1006mb 34f
9:00pm 15 16 mph 1006mb 33f
8:00pm 17 18 mph 1005.7mb 33f
7:00pm 16 17 mph 1004.9mb 33f
6:00pm 17 20 mph 1004.8mb 32f
5:00pm 18 21 mph 1003.9mb 32f
4:00pm 21 22 mph 1003.4mb 32f
3:00pm 20 22 mph 1002.8mb 31f
2:00pm 20 21 mph 1002.4mb 31f
1:00pm 21 22 mph 1002.6mb 30f
12:00pm 18 21 mph 1003.3mb 30f
11:00am 18 20 mph 1004.4mb 30f
10:00am 17 18 mph 1005.4mb 29f
9:00am 16 18 mph 1005.4mb 28f
8:00am 14 15 mph 1006mb 27f
7:00am 13 14 mph 1006.5mb 27f
6:00am 11 13 mph 1006.7mb 27f
5:00am 11 13 mph 1007mb 26f
4:00am 10 11 mph 1007.4mb 26f
3:00am 13 14 mph 1008mb 26f
2:00am 11 14 mph 1009mb 26f
1:00am 15 16 mph 1009.4mb 25f
12:00am 16 20 mph 1010.1mb 26f
Fri 01/23 11:00pm 16 17 mph 1010.8mb 26f
10:00pm 13 14 mph 1012.3mb 26f
9:00pm 16 18 mph 1013.9mb 26f
8:00pm 14 18 mph 1015.1mb 27f
7:00pm 11 14 mph 1015.8mb 27f
6:00pm 14 15 mph 1016.5mb 27f
5:00pm 10 13 mph 1017.1mb 27f
4:00pm 13 15 mph 1018.1mb 28f
3:00pm 13 14 mph 1018.8mb 28f
2:00pm 15 17 mph 1019.3mb 29f
1:00pm 15 16 mph 1020.1mb 29f
12:00pm 14 15 mph 1021.3mb 29f
11:00am 15 18 mph 1023mb 28f
10:00am 15 16 mph 1024.4mb 28f
9:00am 15 18 mph 1024.9mb 28f
8:00am 11 13 mph 1025.6mb 28f
7:00am 11 15 mph 1025.7mb 28f
6:00am 11 14 mph 1026.5mb 28f
5:00am 16 21 mph 1027mb 28f
4:00am 14 15 mph 1027.5mb 28f
3:00am 8 9 mph 1027.7mb 28f
2:00am 9 11 mph 1028.6mb 28f
1:00am 11 13 mph 1029.4mb 28f
12:00am 9 10 mph 1029.9mb 26f
Thu 01/22 11:00pm 6 7 mph 1030.4mb 26f
10:00pm 5 6 mph 1030.7mb 26f
9:00pm 5
mph
1031.3mb 27f
8:00pm 7 9 mph 1031.6mb 27f
7:00pm 7
mph
1031.3mb 28f
6:00pm 6 7 mph 1031.1mb 28f
5:00pm 3
mph
1031.3mb 27f
4:00pm 3
mph
1031.5mb 26f
3:00pm 5
mph
1031mb 26f
2:00pm 5 6 mph 1030.1mb 29f